sensor_id;sensor_type;location;lat;lon;timestamp;temperature;humidity
14769;DHT22;7476;49.404;11.152;2024-03-07T00:01:39;-0.80;99.90
14769;DHT22;7476;49.404;11.152;2024-03-07T00:04:07;-0.60;99.90
14769;DHT22;7476;49.404;11.152;2024-03-07T00:06:33;-0.60;99.90
14769;DHT22;7476;49.404;11.152;2024-03-07T00:09:00;-0.40;99.90
14769;DHT22;7476;49.404;11.152;2024-03-07T00:11:27;-0.20;99.90
14769;DHT22;7476;49.404;11.152;2024-03-07T00:13:56;0.10;99.90
14769;DHT22;7476;49.404;11.152;2024-03-07T00:16:22;0.30;99.90
14769;DHT22;7476;49.404;11.152;2024-03-07T00:18:49;0.50;99.90
14769;DHT22;7476;49.404;11.152;2024-03-07T00:21:17;0.60;99.90
14769;DHT22;7476;49.404;11.152;2024-03-07T00:23:44;0.70;99.90
14769;DHT22;7476;49.404;11.152;2024-03-07T00:26:10;0.80;99.90
14769;DHT22;7476;49.404;11.152;2024-03-07T00:28:37;0.90;99.90
14769;DHT22;7476;49.404;11.152;2024-03-07T00:31:05;1.10;99.90
14769;DHT22;7476;49.404;11.152;2024-03-07T00:33:33;1.20;99.90
14769;DHT22;7476;49.404;11.152;2024-03-07T00:36:00;1.30;99.90
14769;DHT22;7476;49.404;11.152;2024-03-07T00:38:28;1.40;99.90
14769;DHT22;7476;49.404;11.152;2024-03-07T00:40:54;1.60;99.90
14769;DHT22;7476;49.404;11.152;2024-03-07T00:43:21;1.70;99.90
14769;DHT22;7476;49.404;11.152;2024-03-07T00:45:47;1.80;99.90
14769;DHT22;7476;49.404;11.152;2024-03-07T00:48:15;1.80;99.90
14769;DHT22;7476;49.404;11.152;2024-03-07T00:50:42;1.90;99.90
14769;DHT22;7476;49.404;11.152;2024-03-07T00:53:09;1.90;99.90
14769;DHT22;7476;49.404;11.152;2024-03-07T00:55:37;2.00;99.90
14769;DHT22;7476;49.404;11.152;2024-03-07T00:58:04;2.00;99.90
14769;DHT22;7476;49.404;11.152;2024-03-07T01:00:31;2.00;99.90
14769;DHT22;7476;49.404;11.152;2024-03-07T01:02:57;2.00;99.90
14769;DHT22;7476;49.404;11.152;2024-03-07T01:05:24;2.00;99.90
14769;DHT22;7476;49.404;11.152;2024-03-07T01:07:51;2.10;73.50
14769;DHT22;7476;49.404;11.152;2024-03-07T01:10:18;2.10;28.40
14769;DHT22;7476;49.404;11.152;2024-03-07T01:12:46;2.10;71.00
14769;DHT22;7476;49.404;11.152;2024-03-07T01:15:15;2.10;33.70
14769;DHT22;7476;49.404;11.152;2024-03-07T01:17:42;2.20;1.00
14769;DHT22;7476;49.404;11.152;2024-03-07T01:20:10;2.20;28.60
14769;DHT22;7476;49.404;11.152;2024-03-07T01:22:37;2.10;16.10
14769;DHT22;7476;49.404;11.152;2024-03-07T01:25:04;2.20;1.00
14769;DHT22;7476;49.404;11.152;2024-03-07T01:27:31;2.20;3.90
14769;DHT22;7476;49.404;11.152;2024-03-07T01:29:59;2.20;1.00
14769;DHT22;7476;49.404;11.152;2024-03-07T01:32:27;2.10;4.00
14769;DHT22;7476;49.404;11.152;2024-03-07T01:34:53;2.10;1.00
14769;DHT22;7476;49.404;11.152;2024-03-07T01:37:20;2.20;1.00
14769;DHT22;7476;49.404;11.152;2024-03-07T01:39:47;2.20;1.00
14769;DHT22;7476;49.404;11.152;2024-03-07T01:42:13;2.20;1.00
14769;DHT22;7476;49.404;11.152;2024-03-07T01:44:40;2.20;1.00
14769;DHT22;7476;49.404;11.152;2024-03-07T01:47:10;2.10;1.00
14769;DHT22;7476;49.404;11.152;2024-03-07T01:49:37;2.00;1.00
14769;DHT22;7476;49.404;11.152;2024-03-07T01:52:05;1.90;12.60
14769;DHT22;7476;49.404;11.152;2024-03-07T01:54:32;2.00;22.30
14769;DHT22;7476;49.404;11.152;2024-03-07T01:57:00;2.10;6.80
14769;DHT22;7476;49.404;11.152;2024-03-07T01:59:28;2.10;1.00
14769;DHT22;7476;49.404;11.152;2024-03-07T02:01:56;2.20;1.00
14769;DHT22;7476;49.404;11.152;2024-03-07T02:04:24;2.20;1.00
14769;DHT22;7476;49.404;11.152;2024-03-07T02:06:50;2.20;1.00
14769;DHT22;7476;49.404;11.152;2024-03-07T02:09:19;2.20;1.00
14769;DHT22;7476;49.404;11.152;2024-03-07T02:11:47;2.20;1.00
14769;DHT22;7476;49.404;11.152;2024-03-07T02:14:14;2.20;1.00
14769;DHT22;7476;49.404;11.152;2024-03-07T02:16:40;2.20;1.00
14769;DHT22;7476;49.404;11.152;2024-03-07T02:19:08;2.20;1.00
14769;DHT22;7476;49.404;11.152;2024-03-07T02:21:38;2.20;1.00
14769;DHT22;7476;49.404;11.152;2024-03-07T02:24:04;2.20;1.00
14769;DHT22;7476;49.404;11.152;2024-03-07T02:26:31;2.20;1.00
14769;DHT22;7476;49.404;11.152;2024-03-07T02:28:58;2.10;1.00
14769;DHT22;7476;49.404;11.152;2024-03-07T02:31:24;2.10;1.00
14769;DHT22;7476;49.404;11.152;2024-03-07T02:34:00;2.10;1.00
14769;DHT22;7476;49.404;11.152;2024-03-07T02:36:27;2.00;1.00
14769;DHT22;7476;49.404;11.152;2024-03-07T02:38:55;2.10;1.00
14769;DHT22;7476;49.404;11.152;2024-03-07T02:41:21;2.10;1.00
14769;DHT22;7476;49.404;11.152;2024-03-07T02:43:49;2.10;1.00
14769;DHT22;7476;49.404;11.152;2024-03-07T02:46:16;2.00;1.00
14769;DHT22;7476;49.404;11.152;2024-03-07T02:48:43;2.00;1.00
14769;DHT22;7476;49.404;11.152;2024-03-07T02:51:10;2.00;1.00
14769;DHT22;7476;49.404;11.152;2024-03-07T02:53:38;2.00;1.00
14769;DHT22;7476;49.404;11.152;2024-03-07T02:56:06;1.90;1.00
14769;DHT22;7476;49.404;11.152;2024-03-07T02:58:35;2.00;1.00
14769;DHT22;7476;49.404;11.152;2024-03-07T03:01:02;1.90;1.00
14769;DHT22;7476;49.404;11.152;2024-03-07T03:03:29;1.80;1.00
14769;DHT22;7476;49.404;11.152;2024-03-07T03:05:57;1.70;1.00
14769;DHT22;7476;49.404;11.152;2024-03-07T03:08:24;1.60;1.00
14769;DHT22;7476;49.404;11.152;2024-03-07T03:10:51;1.60;9.20
14769;DHT22;7476;49.404;11.152;2024-03-07T03:13:19;1.50;14.10
14769;DHT22;7476;49.404;11.152;2024-03-07T03:15:46;1.40;8.40
14769;DHT22;7476;49.404;11.152;2024-03-07T03:18:13;1.20;21.70
14769;DHT22;7476;49.404;11.152;2024-03-07T03:20:40;0.80;12.60
14769;DHT22;7476;49.404;11.152;2024-03-07T03:23:08;0.60;99.90
14769;DHT22;7476;49.404;11.152;2024-03-07T03:25:37;0.50;99.90
14769;DHT22;7476;49.404;11.152;2024-03-07T03:28:04;0.30;99.90
14769;DHT22;7476;49.404;11.152;2024-03-07T03:30:32;0.20;99.90
14769;DHT22;7476;49.404;11.152;2024-03-07T03:32:59;0.50;99.90
14769;DHT22;7476;49.404;11.152;2024-03-07T03:35:26;0.60;99.90
14769;DHT22;7476;49.404;11.152;2024-03-07T03:37:52;0.80;99.90
14769;DHT22;7476;49.404;11.152;2024-03-07T03:40:19;0.80;99.90
14769;DHT22;7476;49.404;11.152;2024-03-07T03:42:46;0.70;99.90
14769;DHT22;7476;49.404;11.152;2024-03-07T03:45:14;1.00;99.90
14769;DHT22;7476;49.404;11.152;2024-03-07T03:47:43;1.00;98.50
14769;DHT22;7476;49.404;11.152;2024-03-07T03:50:11;0.90;59.80
14769;DHT22;7476;49.404;11.152;2024-03-07T03:52:38;0.80;97.60
14769;DHT22;7476;49.404;11.152;2024-03-07T03:55:06;0.80;93.10
14769;DHT22;7476;49.404;11.152;2024-03-07T03:57:35;0.80;99.90
14769;DHT22;7476;49.404;11.152;2024-03-07T04:00:02;1.00;57.70
14769;DHT22;7476;49.404;11.152;2024-03-07T04:02:33;0.90;27.00
14769;DHT22;7476;49.404;11.152;2024-03-07T04:05:01;0.80;48.20
14769;DHT22;7476;49.404;11.152;2024-03-07T04:07:29;0.80;74.20
14769;DHT22;7476;49.404;11.152;2024-03-07T04:09:57;0.80;15.30
14769;DHT22;7476;49.404;11.152;2024-03-07T04:12:24;0.70;77.90
14769;DHT22;7476;49.404;11.152;2024-03-07T04:14:52;0.70;59.20
14769;DHT22;7476;49.404;11.152;2024-03-07T04:17:20;0.50;54.50
14769;DHT22;7476;49.404;11.152;2024-03-07T04:19:47;0.00;20.50
14769;DHT22;7476;49.404;11.152;2024-03-07T04:22:15;-0.40;65.20
14769;DHT22;7476;49.404;11.152;2024-03-07T04:24:44;-0.80;96.60
14769;DHT22;7476;49.404;11.152;2024-03-07T04:27:11;-1.20;99.90
14769;DHT22;7476;49.404;11.152;2024-03-07T04:29:38;-1.30;99.90
14769;DHT22;7476;49.404;11.152;2024-03-07T04:32:04;-1.50;99.90
14769;DHT22;7476;49.404;11.152;2024-03-07T04:34:32;-1.70;99.90
14769;DHT22;7476;49.404;11.152;2024-03-07T04:36:59;-1.80;99.90
14769;DHT22;7476;49.404;11.152;2024-03-07T04:39:28;-1.80;99.90
14769;DHT22;7476;49.404;11.152;2024-03-07T04:41:58;-1.90;99.90
14769;DHT22;7476;49.404;11.152;2024-03-07T04:44:25;-2.00;99.90
14769;DHT22;7476;49.404;11.152;2024-03-07T04:46:52;-1.90;99.90
14769;DHT22;7476;49.404;11.152;2024-03-07T04:49:21;-1.70;99.90
14769;DHT22;7476;49.404;11.152;2024-03-07T04:51:49;-1.40;99.90
14769;DHT22;7476;49.404;11.152;2024-03-07T04:54:15;-1.20;99.90
14769;DHT22;7476;49.404;11.152;2024-03-07T04:56:43;-0.90;99.90
14769;DHT22;7476;49.404;11.152;2024-03-07T04:59:10;-0.70;99.90
14769;DHT22;7476;49.404;11.152;2024-03-07T05:01:37;-0.40;99.90
14769;DHT22;7476;49.404;11.152;2024-03-07T05:04:04;-0.30;99.90
14769;DHT22;7476;49.404;11.152;2024-03-07T05:06:31;-0.10;99.90
14769;DHT22;7476;49.404;11.152;2024-03-07T05:08:59;-0.10;99.90
14769;DHT22;7476;49.404;11.152;2024-03-07T05:11:26;0.00;99.90
14769;DHT22;7476;49.404;11.152;2024-03-07T05:13:54;0.00;99.90
14769;DHT22;7476;49.404;11.152;2024-03-07T05:16:21;0.00;99.90
14769;DHT22;7476;49.404;11.152;2024-03-07T05:18:47;0.10;99.90
14769;DHT22;7476;49.404;11.152;2024-03-07T05:21:15;0.20;99.90
14769;DHT22;7476;49.404;11.152;2024-03-07T05:24:03;0.30;99.90
14769;DHT22;7476;49.404;11.152;2024-03-07T05:26:30;0.20;99.90
14769;DHT22;7476;49.404;11.152;2024-03-07T05:29:02;0.30;99.90
14769;DHT22;7476;49.404;11.152;2024-03-07T05:31:33;0.50;99.90
14769;DHT22;7476;49.404;11.152;2024-03-07T05:34:00;0.40;99.90
14769;DHT22;7476;49.404;11.152;2024-03-07T05:36:29;0.50;99.90
14769;DHT22;7476;49.404;11.152;2024-03-07T05:38:56;0.40;99.90
14769;DHT22;7476;49.404;11.152;2024-03-07T05:41:23;0.50;99.90
14769;DHT22;7476;49.404;11.152;2024-03-07T05:43:50;0.60;99.90
14769;DHT22;7476;49.404;11.152;2024-03-07T05:46:18;0.70;99.90
14769;DHT22;7476;49.404;11.152;2024-03-07T05:48:45;0.80;99.90
14769;DHT22;7476;49.404;11.152;2024-03-07T05:51:15;0.90;99.90
14769;DHT22;7476;49.404;11.152;2024-03-07T05:53:42;1.00;99.90
14769;DHT22;7476;49.404;11.152;2024-03-07T05:56:08;1.00;99.90
14769;DHT22;7476;49.404;11.152;2024-03-07T05:58:35;1.10;99.90
14769;DHT22;7476;49.404;11.152;2024-03-07T06:01:02;1.20;99.90
14769;DHT22;7476;49.404;11.152;2024-03-07T06:03:30;1.30;99.90
14769;DHT22;7476;49.404;11.152;2024-03-07T06:05:57;1.30;42.00
14769;DHT22;7476;49.404;11.152;2024-03-07T06:08:24;1.40;48.30
14769;DHT22;7476;49.404;11.152;2024-03-07T06:10:50;1.40;21.70
14769;DHT22;7476;49.404;11.152;2024-03-07T06:13:18;1.40;11.00
14769;DHT22;7476;49.404;11.152;2024-03-07T06:15:45;1.50;1.00
14769;DHT22;7476;49.404;11.152;2024-03-07T06:18:13;1.50;1.00
14769;DHT22;7476;49.404;11.152;2024-03-07T06:20:42;1.60;1.00
14769;DHT22;7476;49.404;11.152;2024-03-07T06:23:09;1.60;1.00
14769;DHT22;7476;49.404;11.152;2024-03-07T06:25:37;1.80;1.00
14769;DHT22;7476;49.404;11.152;2024-03-07T06:28:13;1.80;1.00
14769;DHT22;7476;49.404;11.152;2024-03-07T06:30:41;1.90;1.00
14769;DHT22;7476;49.404;11.152;2024-03-07T06:33:08;2.00;1.00
14769;DHT22;7476;49.404;11.152;2024-03-07T06:35:36;2.10;1.00
14769;DHT22;7476;49.404;11.152;2024-03-07T06:38:05;2.20;1.00
14769;DHT22;7476;49.404;11.152;2024-03-07T06:40:33;2.40;1.00
14769;DHT22;7476;49.404;11.152;2024-03-07T06:43:00;2.50;1.00
14769;DHT22;7476;49.404;11.152;2024-03-07T06:45:29;2.70;1.00
14769;DHT22;7476;49.404;11.152;2024-03-07T06:47:55;2.80;1.00
14769;DHT22;7476;49.404;11.152;2024-03-07T06:50:22;2.80;1.00
14769;DHT22;7476;49.404;11.152;2024-03-07T06:52:49;2.80;1.00
14769;DHT22;7476;49.404;11.152;2024-03-07T06:55:18;2.80;1.00
14769;DHT22;7476;49.404;11.152;2024-03-07T06:57:45;2.90;1.00
14769;DHT22;7476;49.404;11.152;2024-03-07T07:00:13;2.80;1.00
14769;DHT22;7476;49.404;11.152;2024-03-07T07:02:40;2.90;1.00
14769;DHT22;7476;49.404;11.152;2024-03-07T07:05:08;3.00;1.00
14769;DHT22;7476;49.404;11.152;2024-03-07T07:07:37;3.10;1.00
14769;DHT22;7476;49.404;11.152;2024-03-07T07:10:05;3.10;1.00
14769;DHT22;7476;49.404;11.152;2024-03-07T07:12:35;3.30;1.00
14769;DHT22;7476;49.404;11.152;2024-03-07T07:15:02;3.40;1.00
14769;DHT22;7476;49.404;11.152;2024-03-07T07:17:29;3.50;1.00
14769;DHT22;7476;49.404;11.152;2024-03-07T07:19:56;3.70;1.00
14769;DHT22;7476;49.404;11.152;2024-03-07T07:22:24;3.90;1.00
14769;DHT22;7476;49.404;11.152;2024-03-07T07:24:50;4.10;1.00
14769;DHT22;7476;49.404;11.152;2024-03-07T07:27:17;4.30;1.00
14769;DHT22;7476;49.404;11.152;2024-03-07T07:29:45;4.30;1.00
14769;DHT22;7476;49.404;11.152;2024-03-07T07:32:12;4.20;1.00
14769;DHT22;7476;49.404;11.152;2024-03-07T07:34:38;4.00;1.00
14769;DHT22;7476;49.404;11.152;2024-03-07T07:37:05;4.20;1.00
14769;DHT22;7476;49.404;11.152;2024-03-07T07:39:32;4.40;1.00
14769;DHT22;7476;49.404;11.152;2024-03-07T07:41:58;4.90;1.00
14769;DHT22;7476;49.404;11.152;2024-03-07T07:44:25;4.70;1.00
14769;DHT22;7476;49.404;11.152;2024-03-07T07:46:53;4.80;99.90
14769;DHT22;7476;49.404;11.152;2024-03-07T07:49:20;5.00;99.90
14769;DHT22;7476;49.404;11.152;2024-03-07T07:51:47;5.50;99.90
14769;DHT22;7476;49.404;11.152;2024-03-07T07:54:14;5.70;1.00
14769;DHT22;7476;49.404;11.152;2024-03-07T07:56:41;5.80;1.00
14769;DHT22;7476;49.404;11.152;2024-03-07T07:59:09;5.70;1.00
14769;DHT22;7476;49.404;11.152;2024-03-07T08:01:36;5.80;1.00
14769;DHT22;7476;49.404;11.152;2024-03-07T08:04:05;6.20;1.00
14769;DHT22;7476;49.404;11.152;2024-03-07T08:06:34;6.40;99.90
14769;DHT22;7476;49.404;11.152;2024-03-07T08:09:01;6.30;5.40
14769;DHT22;7476;49.404;11.152;2024-03-07T08:11:28;6.00;1.00
14769;DHT22;7476;49.404;11.152;2024-03-07T08:13:54;6.00;8.20
14769;DHT22;7476;49.404;11.152;2024-03-07T08:16:21;6.90;1.00
14769;DHT22;7476;49.404;11.152;2024-03-07T08:18:48;7.00;1.00
14769;DHT22;7476;49.404;11.152;2024-03-07T08:21:16;6.80;4.10
14769;DHT22;7476;49.404;11.152;2024-03-07T08:23:43;6.70;19.00
14769;DHT22;7476;49.404;11.152;2024-03-07T08:26:09;6.60;20.10
14769;DHT22;7476;49.404;11.152;2024-03-07T08:28:36;6.80;1.00
14769;DHT22;7476;49.404;11.152;2024-03-07T08:31:03;6.60;3.40
14769;DHT22;7476;49.404;11.152;2024-03-07T08:33:30;7.00;1.00
14769;DHT22;7476;49.404;11.152;2024-03-07T08:35:58;7.10;1.00
14769;DHT22;7476;49.404;11.152;2024-03-07T08:38:27;7.40;99.90
14769;DHT22;7476;49.404;11.152;2024-03-07T08:40:54;7.80;99.90
14769;DHT22;7476;49.404;11.152;2024-03-07T08:43:20;7.90;1.00
14769;DHT22;7476;49.404;11.152;2024-03-07T08:45:47;7.90;5.20
14769;DHT22;7476;49.404;11.152;2024-03-07T08:48:14;7.80;99.90
14769;DHT22;7476;49.404;11.152;2024-03-07T08:50:40;8.60;99.90
14769;DHT22;7476;49.404;11.152;2024-03-07T08:53:07;8.80;1.00
14769;DHT22;7476;49.404;11.152;2024-03-07T08:55:35;9.40;1.00
14769;DHT22;7476;49.404;11.152;2024-03-07T08:58:02;9.90;1.00
14769;DHT22;7476;49.404;11.152;2024-03-07T09:00:29;9.80;1.00
14769;DHT22;7476;49.404;11.152;2024-03-07T09:02:58;9.20;1.00
14769;DHT22;7476;49.404;11.152;2024-03-07T09:05:29;8.00;1.00
14769;DHT22;7476;49.404;11.152;2024-03-07T09:07:58;7.70;82.20
14769;DHT22;7476;49.404;11.152;2024-03-07T09:10:24;7.50;74.10
14769;DHT22;7476;49.404;11.152;2024-03-07T09:12:56;7.40;1.00
14769;DHT22;7476;49.404;11.152;2024-03-07T09:15:23;7.30;99.90
14769;DHT22;7476;49.404;11.152;2024-03-07T09:17:49;7.00;99.90
14769;DHT22;7476;49.404;11.152;2024-03-07T09:20:16;7.10;99.90
14769;DHT22;7476;49.404;11.152;2024-03-07T09:22:44;7.10;1.00
14769;DHT22;7476;49.404;11.152;2024-03-07T09:25:12;7.00;99.90
14769;DHT22;7476;49.404;11.152;2024-03-07T09:27:39;7.00;99.90
14769;DHT22;7476;49.404;11.152;2024-03-07T09:30:09;7.00;99.90
14769;DHT22;7476;49.404;11.152;2024-03-07T09:32:38;7.10;1.00
14769;DHT22;7476;49.404;11.152;2024-03-07T09:35:05;6.90;68.80
14769;DHT22;7476;49.404;11.152;2024-03-07T09:37:38;7.00;99.90
14769;DHT22;7476;49.404;11.152;2024-03-07T09:40:06;7.30;1.00
14769;DHT22;7476;49.404;11.152;2024-03-07T09:42:34;7.40;24.20
14769;DHT22;7476;49.404;11.152;2024-03-07T09:45:04;7.40;1.00
14769;DHT22;7476;49.404;11.152;2024-03-07T09:47:33;7.70;1.00
14769;DHT22;7476;49.404;11.152;2024-03-07T09:50:01;7.90;1.00
14769;DHT22;7476;49.404;11.152;2024-03-07T09:52:29;7.70;1.00
14769;DHT22;7476;49.404;11.152;2024-03-07T09:54:56;7.80;1.00
14769;DHT22;7476;49.404;11.152;2024-03-07T09:57:24;8.00;1.00
14769;DHT22;7476;49.404;11.152;2024-03-07T09:59:51;8.30;1.00
14769;DHT22;7476;49.404;11.152;2024-03-07T10:02:19;8.30;1.00
14769;DHT22;7476;49.404;11.152;2024-03-07T10:04:51;8.70;1.00
14769;DHT22;7476;49.404;11.152;2024-03-07T10:07:21;8.30;1.00
14769;DHT22;7476;49.404;11.152;2024-03-07T10:09:48;8.40;1.00
14769;DHT22;7476;49.404;11.152;2024-03-07T10:12:17;8.30;1.00
14769;DHT22;7476;49.404;11.152;2024-03-07T10:14:56;8.40;1.00
14769;DHT22;7476;49.404;11.152;2024-03-07T10:17:24;8.40;1.00
14769;DHT22;7476;49.404;11.152;2024-03-07T10:19:52;8.00;1.00
14769;DHT22;7476;49.404;11.152;2024-03-07T10:22:20;7.80;1.00
14769;DHT22;7476;49.404;11.152;2024-03-07T10:24:50;7.80;1.00
14769;DHT22;7476;49.404;11.152;2024-03-07T10:27:18;7.90;1.00
14769;DHT22;7476;49.404;11.152;2024-03-07T10:29:46;8.50;1.00
14769;DHT22;7476;49.404;11.152;2024-03-07T10:32:13;8.50;1.00
14769;DHT22;7476;49.404;11.152;2024-03-07T10:34:40;8.00;1.00
14769;DHT22;7476;49.404;11.152;2024-03-07T10:37:12;7.80;1.00
14769;DHT22;7476;49.404;11.152;2024-03-07T10:39:42;7.70;1.00
14769;DHT22;7476;49.404;11.152;2024-03-07T10:42:13;7.90;1.00
14769;DHT22;7476;49.404;11.152;2024-03-07T10:44:43;8.00;1.00
14769;DHT22;7476;49.404;11.152;2024-03-07T10:47:15;8.20;1.00
14769;DHT22;7476;49.404;11.152;2024-03-07T10:49:52;8.10;1.00
14769;DHT22;7476;49.404;11.152;2024-03-07T10:52:29;8.20;1.00
14769;DHT22;7476;49.404;11.152;2024-03-07T10:55:08;8.10;1.00
14769;DHT22;7476;49.404;11.152;2024-03-07T10:57:44;8.60;1.00
14769;DHT22;7476;49.404;11.152;2024-03-07T11:00:16;8.40;1.00
14769;DHT22;7476;49.404;11.152;2024-03-07T11:03:01;8.90;1.00
14769;DHT22;7476;49.404;11.152;2024-03-07T11:05:33;8.20;1.00
14769;DHT22;7476;49.404;11.152;2024-03-07T11:08:02;8.30;1.00
14769;DHT22;7476;49.404;11.152;2024-03-07T11:10:32;8.10;1.00
14769;DHT22;7476;49.404;11.152;2024-03-07T11:13:00;7.90;1.00
14769;DHT22;7476;49.404;11.152;2024-03-07T11:15:28;8.20;1.00
14769;DHT22;7476;49.404;11.152;2024-03-07T11:17:55;8.50;1.00
14769;DHT22;7476;49.404;11.152;2024-03-07T11:20:25;8.60;1.00
14769;DHT22;7476;49.404;11.152;2024-03-07T11:22:53;8.30;1.00
14769;DHT22;7476;49.404;11.152;2024-03-07T11:25:22;8.00;1.00
14769;DHT22;7476;49.404;11.152;2024-03-07T11:27:52;8.20;1.00
14769;DHT22;7476;49.404;11.152;2024-03-07T11:30:19;8.50;1.00
14769;DHT22;7476;49.404;11.152;2024-03-07T11:32:48;8.80;1.00
14769;DHT22;7476;49.404;11.152;2024-03-07T11:35:16;9.00;1.00
14769;DHT22;7476;49.404;11.152;2024-03-07T11:37:48;9.20;1.00
14769;DHT22;7476;49.404;11.152;2024-03-07T11:40:51;9.40;99.90
14769;DHT22;7476;49.404;11.152;2024-03-07T11:43:18;9.80;99.90
14769;DHT22;7476;49.404;11.152;2024-03-07T11:45:45;9.60;99.90
14769;DHT22;7476;49.404;11.152;2024-03-07T11:48:18;9.50;99.90
14769;DHT22;7476;49.404;11.152;2024-03-07T11:50:46;9.30;99.90
14769;DHT22;7476;49.404;11.152;2024-03-07T11:53:14;9.30;99.90
14769;DHT22;7476;49.404;11.152;2024-03-07T11:55:41;9.70;99.90
14769;DHT22;7476;49.404;11.152;2024-03-07T11:58:12;9.70;99.90
14769;DHT22;7476;49.404;11.152;2024-03-07T12:00:40;9.30;99.90
14769;DHT22;7476;49.404;11.152;2024-03-07T12:03:08;8.90;99.90
14769;DHT22;7476;49.404;11.152;2024-03-07T12:05:39;8.80;99.90
14769;DHT22;7476;49.404;11.152;2024-03-07T12:08:06;8.80;99.90
14769;DHT22;7476;49.404;11.152;2024-03-07T12:10:35;8.90;99.90
14769;DHT22;7476;49.404;11.152;2024-03-07T12:13:04;8.80;99.90
14769;DHT22;7476;49.404;11.152;2024-03-07T12:15:33;8.90;99.90
14769;DHT22;7476;49.404;11.152;2024-03-07T12:18:01;9.00;99.90
14769;DHT22;7476;49.404;11.152;2024-03-07T12:20:30;9.00;99.90
14769;DHT22;7476;49.404;11.152;2024-03-07T12:22:59;8.90;99.90
14769;DHT22;7476;49.404;11.152;2024-03-07T12:25:28;8.70;99.90
14769;DHT22;7476;49.404;11.152;2024-03-07T12:28:02;8.40;1.00
14769;DHT22;7476;49.404;11.152;2024-03-07T12:30:33;8.20;99.90
14769;DHT22;7476;49.404;11.152;2024-03-07T12:33:01;8.20;1.00
14769;DHT22;7476;49.404;11.152;2024-03-07T12:35:29;8.30;1.00
14769;DHT22;7476;49.404;11.152;2024-03-07T12:37:57;8.10;1.00
14769;DHT22;7476;49.404;11.152;2024-03-07T12:40:24;8.20;1.00
14769;DHT22;7476;49.404;11.152;2024-03-07T12:42:54;8.30;1.00
14769;DHT22;7476;49.404;11.152;2024-03-07T12:45:21;8.40;1.00
14769;DHT22;7476;49.404;11.152;2024-03-07T12:47:51;8.60;1.00
14769;DHT22;7476;49.404;11.152;2024-03-07T12:50:20;8.30;1.00
14769;DHT22;7476;49.404;11.152;2024-03-07T12:52:46;8.20;1.00
14769;DHT22;7476;49.404;11.152;2024-03-07T12:55:15;8.10;1.00
14769;DHT22;7476;49.404;11.152;2024-03-07T12:57:43;8.10;1.00
14769;DHT22;7476;49.404;11.152;2024-03-07T13:00:11;8.00;1.00
14769;DHT22;7476;49.404;11.152;2024-03-07T13:02:45;8.00;1.00
14769;DHT22;7476;49.404;11.152;2024-03-07T13:05:13;8.10;1.00
14769;DHT22;7476;49.404;11.152;2024-03-07T13:07:45;8.00;1.00
14769;DHT22;7476;49.404;11.152;2024-03-07T13:10:13;8.00;1.00
14769;DHT22;7476;49.404;11.152;2024-03-07T13:12:40;7.90;1.00
14769;DHT22;7476;49.404;11.152;2024-03-07T13:15:09;8.10;1.00
14769;DHT22;7476;49.404;11.152;2024-03-07T13:17:37;8.10;1.00
14769;DHT22;7476;49.404;11.152;2024-03-07T13:20:04;8.10;1.00
14769;DHT22;7476;49.404;11.152;2024-03-07T13:22:38;8.10;1.00
14769;DHT22;7476;49.404;11.152;2024-03-07T13:25:08;8.00;1.00
14769;DHT22;7476;49.404;11.152;2024-03-07T13:27:40;8.10;1.00
14769;DHT22;7476;49.404;11.152;2024-03-07T13:30:10;8.10;1.00
14769;DHT22;7476;49.404;11.152;2024-03-07T13:32:49;8.00;1.00
14769;DHT22;7476;49.404;11.152;2024-03-07T13:35:16;8.10;1.00
14769;DHT22;7476;49.404;11.152;2024-03-07T13:37:46;8.00;1.00
14769;DHT22;7476;49.404;11.152;2024-03-07T13:40:13;8.00;99.90
14769;DHT22;7476;49.404;11.152;2024-03-07T13:42:49;8.20;1.00
14769;DHT22;7476;49.404;11.152;2024-03-07T13:45:17;8.10;1.00
14769;DHT22;7476;49.404;11.152;2024-03-07T13:47:44;8.20;1.00
14769;DHT22;7476;49.404;11.152;2024-03-07T13:50:13;8.20;99.90
14769;DHT22;7476;49.404;11.152;2024-03-07T13:52:40;8.40;1.00
14769;DHT22;7476;49.404;11.152;2024-03-07T13:55:20;8.40;1.00
14769;DHT22;7476;49.404;11.152;2024-03-07T13:57:51;8.30;1.00
14769;DHT22;7476;49.404;11.152;2024-03-07T14:00:32;8.00;99.90
14769;DHT22;7476;49.404;11.152;2024-03-07T14:03:40;7.90;1.00
14769;DHT22;7476;49.404;11.152;2024-03-07T14:06:21;7.80;1.00
14769;DHT22;7476;49.404;11.152;2024-03-07T14:12:21;7.70;1.00
14769;DHT22;7476;49.404;11.152;2024-03-07T14:18:14;7.60;1.00
14769;DHT22;7476;49.404;11.152;2024-03-07T14:20:56;7.80;1.00
14769;DHT22;7476;49.404;11.152;2024-03-07T14:23:39;7.70;1.00
14769;DHT22;7476;49.404;11.152;2024-03-07T14:29:17;7.60;1.00
14769;DHT22;7476;49.404;11.152;2024-03-07T14:31:45;7.60;1.00
14769;DHT22;7476;49.404;11.152;2024-03-07T14:34:20;7.50;1.00
14769;DHT22;7476;49.404;11.152;2024-03-07T14:36:55;7.40;1.00
14769;DHT22;7476;49.404;11.152;2024-03-07T14:39:23;7.40;1.00
14769;DHT22;7476;49.404;11.152;2024-03-07T14:41:53;7.40;1.00
14769;DHT22;7476;49.404;11.152;2024-03-07T14:44:22;7.40;1.00
14769;DHT22;7476;49.404;11.152;2024-03-07T14:46:54;7.40;1.00
14769;DHT22;7476;49.404;11.152;2024-03-07T14:49:22;7.50;1.00
14769;DHT22;7476;49.404;11.152;2024-03-07T14:51:49;7.60;1.00
14769;DHT22;7476;49.404;11.152;2024-03-07T14:54:19;7.60;1.00
14769;DHT22;7476;49.404;11.152;2024-03-07T14:56:46;7.60;1.00
14769;DHT22;7476;49.404;11.152;2024-03-07T14:59:12;7.40;1.00
14769;DHT22;7476;49.404;11.152;2024-03-07T15:01:42;7.40;1.00
14769;DHT22;7476;49.404;11.152;2024-03-07T15:04:09;7.40;1.00
14769;DHT22;7476;49.404;11.152;2024-03-07T15:06:37;7.50;1.00
14769;DHT22;7476;49.404;11.152;2024-03-07T15:09:04;7.30;1.00
14769;DHT22;7476;49.404;11.152;2024-03-07T15:11:36;7.30;1.00
14769;DHT22;7476;49.404;11.152;2024-03-07T15:14:03;7.30;1.00
14769;DHT22;7476;49.404;11.152;2024-03-07T15:16:30;7.30;1.00
14769;DHT22;7476;49.404;11.152;2024-03-07T15:19:01;7.30;1.00
14769;DHT22;7476;49.404;11.152;2024-03-07T15:21:28;7.30;1.00
14769;DHT22;7476;49.404;11.152;2024-03-07T15:23:55;7.30;1.00
14769;DHT22;7476;49.404;11.152;2024-03-07T15:26:22;7.20;1.00
14769;DHT22;7476;49.404;11.152;2024-03-07T15:28:49;7.30;1.00
14769;DHT22;7476;49.404;11.152;2024-03-07T15:31:16;7.20;1.00
14769;DHT22;7476;49.404;11.152;2024-03-07T15:33:44;7.10;1.00
14769;DHT22;7476;49.404;11.152;2024-03-07T15:36:13;7.20;1.00
14769;DHT22;7476;49.404;11.152;2024-03-07T15:38:39;7.20;1.00
14769;DHT22;7476;49.404;11.152;2024-03-07T15:41:07;7.20;1.00
14769;DHT22;7476;49.404;11.152;2024-03-07T15:43:35;7.10;1.00
14769;DHT22;7476;49.404;11.152;2024-03-07T15:46:02;7.00;1.00
14769;DHT22;7476;49.404;11.152;2024-03-07T15:48:30;7.00;1.00
14769;DHT22;7476;49.404;11.152;2024-03-07T15:50:58;7.00;1.00
14769;DHT22;7476;49.404;11.152;2024-03-07T15:53:26;7.00;1.00
14769;DHT22;7476;49.404;11.152;2024-03-07T15:55:53;7.00;1.00
14769;DHT22;7476;49.404;11.152;2024-03-07T15:58:19;7.00;1.00
14769;DHT22;7476;49.404;11.152;2024-03-07T16:00:46;6.90;1.00
14769;DHT22;7476;49.404;11.152;2024-03-07T16:03:13;6.90;1.00
14769;DHT22;7476;49.404;11.152;2024-03-07T16:05:42;6.80;1.00
14769;DHT22;7476;49.404;11.152;2024-03-07T16:08:10;6.80;1.00
14769;DHT22;7476;49.404;11.152;2024-03-07T16:10:41;6.80;1.00
14769;DHT22;7476;49.404;11.152;2024-03-07T16:13:08;6.70;1.00